Index of /20260428/WXO-DD/model_rdps/10km/00/009
Name Last modified Size Description
Parent Directory -
20260428T00Z_MSC_RDPS_AbsoluteVorticity_IsbL-0250_RLatLon0.09_PT009H.grib2 2026-04-28 02:42 514K
20260428T00Z_MSC_RDPS_AbsoluteVorticity_IsbL-0500_RLatLon0.09_PT009H.grib2 2026-04-28 02:42 571K
20260428T00Z_MSC_RDPS_AbsoluteVorticity_IsbL-0700_RLatLon0.09_PT009H.grib2 2026-04-28 02:42 617K
20260428T00Z_MSC_RDPS_AbsoluteVorticity_IsbL-0850_RLatLon0.09_PT009H.grib2 2026-04-28 02:42 777K
20260428T00Z_MSC_RDPS_AirTemp_AGL-120m_RLatLon0.09_PT009H.grib2 2026-04-28 02:42 378K
20260428T00Z_MSC_RDPS_AirTemp_AGL-2m_RLatLon0.09_PT009H.grib2 2026-04-28 02:42 639K
20260428T00Z_MSC_RDPS_AirTemp_AGL-40m_RLatLon0.09_PT009H.grib2 2026-04-28 02:42 396K
20260428T00Z_MSC_RDPS_AirTemp_AGL-80m_RLatLon0.09_PT009H.grib2 2026-04-28 02:42 386K
20260428T00Z_MSC_RDPS_AirTemp_IsbL-0001_RLatLon0.09_PT009H.grib2 2026-04-28 02:42 254K
20260428T00Z_MSC_RDPS_AirTemp_IsbL-0005_RLatLon0.09_PT009H.grib2 2026-04-28 02:42 290K
20260428T00Z_MSC_RDPS_AirTemp_IsbL-0010_RLatLon0.09_PT009H.grib2 2026-04-28 02:42 301K
20260428T00Z_MSC_RDPS_AirTemp_IsbL-0020_RLatLon0.09_PT009H.grib2 2026-04-28 02:42 316K
20260428T00Z_MSC_RDPS_AirTemp_IsbL-0030_RLatLon0.09_PT009H.grib2 2026-04-28 02:42 332K
20260428T00Z_MSC_RDPS_AirTemp_IsbL-0050_RLatLon0.09_PT009H.grib2 2026-04-28 02:42 314K
20260428T00Z_MSC_RDPS_AirTemp_IsbL-0100_RLatLon0.09_PT009H.grib2 2026-04-28 02:42 429K
20260428T00Z_MSC_RDPS_AirTemp_IsbL-0150_RLatLon0.09_PT009H.grib2 2026-04-28 02:42 434K
20260428T00Z_MSC_RDPS_AirTemp_IsbL-0175_RLatLon0.09_PT009H.grib2 2026-04-28 02:42 424K
20260428T00Z_MSC_RDPS_AirTemp_IsbL-0200_RLatLon0.09_PT009H.grib2 2026-04-28 02:42 424K
20260428T00Z_MSC_RDPS_AirTemp_IsbL-0225_RLatLon0.09_PT009H.grib2 2026-04-28 02:42 425K
20260428T00Z_MSC_RDPS_AirTemp_IsbL-0250_RLatLon0.09_PT009H.grib2 2026-04-28 02:42 431K
20260428T00Z_MSC_RDPS_AirTemp_IsbL-0275_RLatLon0.09_PT009H.grib2 2026-04-28 02:42 411K
20260428T00Z_MSC_RDPS_AirTemp_IsbL-0300_RLatLon0.09_PT009H.grib2 2026-04-28 02:42 418K
20260428T00Z_MSC_RDPS_AirTemp_IsbL-0350_RLatLon0.09_PT009H.grib2 2026-04-28 02:42 430K
20260428T00Z_MSC_RDPS_AirTemp_IsbL-0400_RLatLon0.09_PT009H.grib2 2026-04-28 02:42 431K
20260428T00Z_MSC_RDPS_AirTemp_IsbL-0450_RLatLon0.09_PT009H.grib2 2026-04-28 02:42 439K
20260428T00Z_MSC_RDPS_AirTemp_IsbL-0500_RLatLon0.09_PT009H.grib2 2026-04-28 02:42 414K
20260428T00Z_MSC_RDPS_AirTemp_IsbL-0550_RLatLon0.09_PT009H.grib2 2026-04-28 02:42 429K
20260428T00Z_MSC_RDPS_AirTemp_IsbL-0600_RLatLon0.09_PT009H.grib2 2026-04-28 02:42 446K
20260428T00Z_MSC_RDPS_AirTemp_IsbL-0650_RLatLon0.09_PT009H.grib2 2026-04-28 02:42 457K
20260428T00Z_MSC_RDPS_AirTemp_IsbL-0700_RLatLon0.09_PT009H.grib2 2026-04-28 02:42 480K
20260428T00Z_MSC_RDPS_AirTemp_IsbL-0750_RLatLon0.09_PT009H.grib2 2026-04-28 02:42 409K
20260428T00Z_MSC_RDPS_AirTemp_IsbL-0800_RLatLon0.09_PT009H.grib2 2026-04-28 02:42 456K
20260428T00Z_MSC_RDPS_AirTemp_IsbL-0850_RLatLon0.09_PT009H.grib2 2026-04-28 02:42 504K
20260428T00Z_MSC_RDPS_AirTemp_IsbL-0875_RLatLon0.09_PT009H.grib2 2026-04-28 02:42 520K
20260428T00Z_MSC_RDPS_AirTemp_IsbL-0900_RLatLon0.09_PT009H.grib2 2026-04-28 02:42 524K
20260428T00Z_MSC_RDPS_AirTemp_IsbL-0925_RLatLon0.09_PT009H.grib2 2026-04-28 02:42 523K
20260428T00Z_MSC_RDPS_AirTemp_IsbL-0950_RLatLon0.09_PT009H.grib2 2026-04-28 02:42 527K
20260428T00Z_MSC_RDPS_AirTemp_IsbL-0970_RLatLon0.09_PT009H.grib2 2026-04-28 02:42 522K
20260428T00Z_MSC_RDPS_AirTemp_IsbL-0985_RLatLon0.09_PT009H.grib2 2026-04-28 02:42 510K
20260428T00Z_MSC_RDPS_AirTemp_IsbL-1000_RLatLon0.09_PT009H.grib2 2026-04-28 02:42 493K
20260428T00Z_MSC_RDPS_AirTemp_IsbL-1015_RLatLon0.09_PT009H.grib2 2026-04-28 02:42 494K
20260428T00Z_MSC_RDPS_Albedo_Sfc_RLatLon0.09_PT009H.grib2 2026-04-28 02:42 165K
20260428T00Z_MSC_RDPS_CAPE_Sfc_RLatLon0.09_PT009H.grib2 2026-04-28 02:42 1.6M
20260428T00Z_MSC_RDPS_CIN_Sfc_RLatLon0.09_PT009H.grib2 2026-04-28 02:42 1.1M
20260428T00Z_MSC_RDPS_CloudWater_EAtm_RLatLon0.09_PT009H.grib2 2026-04-28 02:42 216K
20260428T00Z_MSC_RDPS_ConvectivePrecip-Accum_Sfc_RLatLon0.09_PT009H.grib2 2026-04-28 02:42 621K
20260428T00Z_MSC_RDPS_DewPointDepression_AGL-2m_RLatLon0.09_PT009H.grib2 2026-04-28 02:42 391K
20260428T00Z_MSC_RDPS_DewPointDepression_IsbL-0001_RLatLon0.09_PT009H.grib2 2026-04-28 02:42 193
20260428T00Z_MSC_RDPS_DewPointDepression_IsbL-0005_RLatLon0.09_PT009H.grib2 2026-04-28 02:42 193
20260428T00Z_MSC_RDPS_DewPointDepression_IsbL-0010_RLatLon0.09_PT009H.grib2 2026-04-28 02:42 193
20260428T00Z_MSC_RDPS_DewPointDepression_IsbL-0020_RLatLon0.09_PT009H.grib2 2026-04-28 02:42 193
20260428T00Z_MSC_RDPS_DewPointDepression_IsbL-0030_RLatLon0.09_PT009H.grib2 2026-04-28 02:42 193
20260428T00Z_MSC_RDPS_DewPointDepression_IsbL-0050_RLatLon0.09_PT009H.grib2 2026-04-28 02:42 89K
20260428T00Z_MSC_RDPS_DewPointDepression_IsbL-0100_RLatLon0.09_PT009H.grib2 2026-04-28 02:42 130K
20260428T00Z_MSC_RDPS_DewPointDepression_IsbL-0150_RLatLon0.09_PT009H.grib2 2026-04-28 02:42 156K
20260428T00Z_MSC_RDPS_DewPointDepression_IsbL-0175_RLatLon0.09_PT009H.grib2 2026-04-28 02:42 189K
20260428T00Z_MSC_RDPS_DewPointDepression_IsbL-0200_RLatLon0.09_PT009H.grib2 2026-04-28 02:42 225K
20260428T00Z_MSC_RDPS_DewPointDepression_IsbL-0225_RLatLon0.09_PT009H.grib2 2026-04-28 02:42 265K
20260428T00Z_MSC_RDPS_DewPointDepression_IsbL-0250_RLatLon0.09_PT009H.grib2 2026-04-28 02:42 302K
20260428T00Z_MSC_RDPS_DewPointDepression_IsbL-0275_RLatLon0.09_PT009H.grib2 2026-04-28 02:42 309K
20260428T00Z_MSC_RDPS_DewPointDepression_IsbL-0300_RLatLon0.09_PT009H.grib2 2026-04-28 02:42 327K
20260428T00Z_MSC_RDPS_DewPointDepression_IsbL-0350_RLatLon0.09_PT009H.grib2 2026-04-28 02:42 334K
20260428T00Z_MSC_RDPS_DewPointDepression_IsbL-0400_RLatLon0.09_PT009H.grib2 2026-04-28 02:42 348K
20260428T00Z_MSC_RDPS_DewPointDepression_IsbL-0450_RLatLon0.09_PT009H.grib2 2026-04-28 02:42 356K
20260428T00Z_MSC_RDPS_DewPointDepression_IsbL-0500_RLatLon0.09_PT009H.grib2 2026-04-28 02:42 358K
20260428T00Z_MSC_RDPS_DewPointDepression_IsbL-0550_RLatLon0.09_PT009H.grib2 2026-04-28 02:42 365K
20260428T00Z_MSC_RDPS_DewPointDepression_IsbL-0600_RLatLon0.09_PT009H.grib2 2026-04-28 02:42 377K
20260428T00Z_MSC_RDPS_DewPointDepression_IsbL-0650_RLatLon0.09_PT009H.grib2 2026-04-28 02:42 382K
20260428T00Z_MSC_RDPS_DewPointDepression_IsbL-0700_RLatLon0.09_PT009H.grib2 2026-04-28 02:42 391K
20260428T00Z_MSC_RDPS_DewPointDepression_IsbL-0750_RLatLon0.09_PT009H.grib2 2026-04-28 02:42 414K
20260428T00Z_MSC_RDPS_DewPointDepression_IsbL-0800_RLatLon0.09_PT009H.grib2 2026-04-28 02:42 445K
20260428T00Z_MSC_RDPS_DewPointDepression_IsbL-0850_RLatLon0.09_PT009H.grib2 2026-04-28 02:42 473K
20260428T00Z_MSC_RDPS_DewPointDepression_IsbL-0875_RLatLon0.09_PT009H.grib2 2026-04-28 02:42 473K
20260428T00Z_MSC_RDPS_DewPointDepression_IsbL-0900_RLatLon0.09_PT009H.grib2 2026-04-28 02:42 461K
20260428T00Z_MSC_RDPS_DewPointDepression_IsbL-0925_RLatLon0.09_PT009H.grib2 2026-04-28 02:42 451K
20260428T00Z_MSC_RDPS_DewPointDepression_IsbL-0950_RLatLon0.09_PT009H.grib2 2026-04-28 02:42 443K
20260428T00Z_MSC_RDPS_DewPointDepression_IsbL-0970_RLatLon0.09_PT009H.grib2 2026-04-28 02:42 436K
20260428T00Z_MSC_RDPS_DewPointDepression_IsbL-0985_RLatLon0.09_PT009H.grib2 2026-04-28 02:42 430K
20260428T00Z_MSC_RDPS_DewPointDepression_IsbL-1000_RLatLon0.09_PT009H.grib2 2026-04-28 02:42 426K
20260428T00Z_MSC_RDPS_DewPointDepression_IsbL-1015_RLatLon0.09_PT009H.grib2 2026-04-28 02:42 419K
20260428T00Z_MSC_RDPS_DewPoint_AGL-2m_RLatLon0.09_PT009H.grib2 2026-04-28 02:42 312K
20260428T00Z_MSC_RDPS_DownwardLongwaveRadiationFlux-Accum_Sfc_RLatLon0.09_PT009H.grib2 2026-04-28 02:42 431K
20260428T00Z_MSC_RDPS_DownwardShortwaveRadiationFlux-Accum_NTAtm_RLatLon0.09_PT009H.grib2 2026-04-28 02:42 93K
20260428T00Z_MSC_RDPS_DownwardShortwaveRadiationFlux-Accum_Sfc_RLatLon0.09_PT009H.grib2 2026-04-28 02:42 383K
20260428T00Z_MSC_RDPS_FreezingRain-Accum1h_Sfc_RLatLon0.09_PT009H.grib2 2026-04-28 02:42 43K
20260428T00Z_MSC_RDPS_FreezingRain-Accum3h_Sfc_RLatLon0.09_PT009H.grib2 2026-04-28 02:42 51K
20260428T00Z_MSC_RDPS_FreezingRain-Accum_Sfc_RLatLon0.09_PT009H.grib2 2026-04-28 02:42 79K
20260428T00Z_MSC_RDPS_GeopotentialHeight_IsbL-0001_RLatLon0.09_PT009H.grib2 2026-04-28 02:42 242K
20260428T00Z_MSC_RDPS_GeopotentialHeight_IsbL-0005_RLatLon0.09_PT009H.grib2 2026-04-28 02:42 343K
20260428T00Z_MSC_RDPS_GeopotentialHeight_IsbL-0010_RLatLon0.09_PT009H.grib2 2026-04-28 02:42 311K
20260428T00Z_MSC_RDPS_GeopotentialHeight_IsbL-0020_RLatLon0.09_PT009H.grib2 2026-04-28 02:42 310K
20260428T00Z_MSC_RDPS_GeopotentialHeight_IsbL-0030_RLatLon0.09_PT009H.grib2 2026-04-28 02:42 311K
20260428T00Z_MSC_RDPS_GeopotentialHeight_IsbL-0050_RLatLon0.09_PT009H.grib2 2026-04-28 02:42 313K
20260428T00Z_MSC_RDPS_GeopotentialHeight_IsbL-0100_RLatLon0.09_PT009H.grib2 2026-04-28 02:42 290K
20260428T00Z_MSC_RDPS_GeopotentialHeight_IsbL-0150_RLatLon0.09_PT009H.grib2 2026-04-28 02:42 233K
20260428T00Z_MSC_RDPS_GeopotentialHeight_IsbL-0175_RLatLon0.09_PT009H.grib2 2026-04-28 02:42 236K
20260428T00Z_MSC_RDPS_GeopotentialHeight_IsbL-0200_RLatLon0.09_PT009H.grib2 2026-04-28 02:42 269K
20260428T00Z_MSC_RDPS_GeopotentialHeight_IsbL-0225_RLatLon0.09_PT009H.grib2 2026-04-28 02:42 270K
20260428T00Z_MSC_RDPS_GeopotentialHeight_IsbL-0250_RLatLon0.09_PT009H.grib2 2026-04-28 02:42 270K
20260428T00Z_MSC_RDPS_GeopotentialHeight_IsbL-0275_RLatLon0.09_PT009H.grib2 2026-04-28 02:42 270K
20260428T00Z_MSC_RDPS_GeopotentialHeight_IsbL-0300_RLatLon0.09_PT009H.grib2 2026-04-28 02:42 270K
20260428T00Z_MSC_RDPS_GeopotentialHeight_IsbL-0350_RLatLon0.09_PT009H.grib2 2026-04-28 02:42 236K
20260428T00Z_MSC_RDPS_GeopotentialHeight_IsbL-0400_RLatLon0.09_PT009H.grib2 2026-04-28 02:42 232K
20260428T00Z_MSC_RDPS_GeopotentialHeight_IsbL-0450_RLatLon0.09_PT009H.grib2 2026-04-28 02:42 300K
20260428T00Z_MSC_RDPS_GeopotentialHeight_IsbL-0500_RLatLon0.09_PT009H.grib2 2026-04-28 02:42 295K
20260428T00Z_MSC_RDPS_GeopotentialHeight_IsbL-0550_RLatLon0.09_PT009H.grib2 2026-04-28 02:42 291K
20260428T00Z_MSC_RDPS_GeopotentialHeight_IsbL-0600_RLatLon0.09_PT009H.grib2 2026-04-28 02:42 286K
20260428T00Z_MSC_RDPS_GeopotentialHeight_IsbL-0650_RLatLon0.09_PT009H.grib2 2026-04-28 02:42 285K
20260428T00Z_MSC_RDPS_GeopotentialHeight_IsbL-0700_RLatLon0.09_PT009H.grib2 2026-04-28 02:42 254K
20260428T00Z_MSC_RDPS_GeopotentialHeight_IsbL-0750_RLatLon0.09_PT009H.grib2 2026-04-28 02:42 257K
20260428T00Z_MSC_RDPS_GeopotentialHeight_IsbL-0800_RLatLon0.09_PT009H.grib2 2026-04-28 02:42 347K
20260428T00Z_MSC_RDPS_GeopotentialHeight_IsbL-0850_RLatLon0.09_PT009H.grib2 2026-04-28 02:42 356K
20260428T00Z_MSC_RDPS_GeopotentialHeight_IsbL-0875_RLatLon0.09_PT009H.grib2 2026-04-28 02:42 357K
20260428T00Z_MSC_RDPS_GeopotentialHeight_IsbL-0900_RLatLon0.09_PT009H.grib2 2026-04-28 02:42 363K
20260428T00Z_MSC_RDPS_GeopotentialHeight_IsbL-0925_RLatLon0.09_PT009H.grib2 2026-04-28 02:42 367K
20260428T00Z_MSC_RDPS_GeopotentialHeight_IsbL-0950_RLatLon0.09_PT009H.grib2 2026-04-28 02:42 371K
20260428T00Z_MSC_RDPS_GeopotentialHeight_IsbL-0970_RLatLon0.09_PT009H.grib2 2026-04-28 02:42 376K
20260428T00Z_MSC_RDPS_GeopotentialHeight_IsbL-0985_RLatLon0.09_PT009H.grib2 2026-04-28 02:42 384K
20260428T00Z_MSC_RDPS_GeopotentialHeight_IsbL-1000_RLatLon0.09_PT009H.grib2 2026-04-28 02:42 395K
20260428T00Z_MSC_RDPS_GeopotentialHeight_IsbL-1015_RLatLon0.09_PT009H.grib2 2026-04-28 02:42 410K
20260428T00Z_MSC_RDPS_Humidex_Sfc_RLatLon0.09_PT009H.grib2 2026-04-28 02:42 2.4M
20260428T00Z_MSC_RDPS_IcePellets-Accum1h_Sfc_RLatLon0.09_PT009H.grib2 2026-04-28 02:42 10K
20260428T00Z_MSC_RDPS_IcePellets-Accum3h_Sfc_RLatLon0.09_PT009H.grib2 2026-04-28 02:42 11K
20260428T00Z_MSC_RDPS_IcePellets-Accum_Sfc_RLatLon0.09_PT009H.grib2 2026-04-28 02:42 11K
20260428T00Z_MSC_RDPS_KIndex_Sfc_RLatLon0.09_PT009H.grib2 2026-04-28 02:42 2.4M
20260428T00Z_MSC_RDPS_LatentHeatNetFlux_Sfc_RLatLon0.09_PT009H.grib2 2026-04-28 02:42 314K
20260428T00Z_MSC_RDPS_LiftedIndex-MU-VT_IsbL-0500_RLatLon0.09_PT009H.grib2 2026-04-28 02:42 2.4M
20260428T00Z_MSC_RDPS_NetLongwaveRadiationFlux-Accum_Sfc_RLatLon0.09_PT009H.grib2 2026-04-28 02:42 561K
20260428T00Z_MSC_RDPS_NetShortwaveRadiationFlux-Accum_Sfc_RLatLon0.09_PT009H.grib2 2026-04-28 02:42 360K
20260428T00Z_MSC_RDPS_PlanetaryBoundaryLayerHeight_Sfc_RLatLon0.09_PT009H.grib2 2026-04-28 02:42 1.1M
20260428T00Z_MSC_RDPS_Precip-Accum1h_Sfc_RLatLon0.09_PT009H.grib2 2026-04-28 02:42 1.2M
20260428T00Z_MSC_RDPS_Precip-Accum3h_Sfc_RLatLon0.09_PT009H.grib2 2026-04-28 02:42 1.3M
20260428T00Z_MSC_RDPS_Precip-Accum_Sfc_RLatLon0.09_PT009H.grib2 2026-04-28 02:42 1.6M
20260428T00Z_MSC_RDPS_PrecipRate_Sfc_RLatLon0.09_PT009H.grib2 2026-04-28 02:42 181K
20260428T00Z_MSC_RDPS_PrecipType-Instant_Sfc_RLatLon0.09_PT009H.grib2 2026-04-28 02:42 574K
20260428T00Z_MSC_RDPS_Pressure-Trend3h_Sfc_RLatLon0.09_PT009H.grib2 2026-04-28 02:42 1.2M
20260428T00Z_MSC_RDPS_Pressure_MSL_RLatLon0.09_PT009H.grib2 2026-04-28 02:42 294K
20260428T00Z_MSC_RDPS_Pressure_PVU-1.5_RLatLon0.09_PT009H.grib2 2026-04-28 02:42 2.3M
20260428T00Z_MSC_RDPS_Pressure_PVU-1_RLatLon0.09_PT009H.grib2 2026-04-28 02:42 2.4M
20260428T00Z_MSC_RDPS_Pressure_PVU-2_RLatLon0.09_PT009H.grib2 2026-04-28 02:42 2.4M
20260428T00Z_MSC_RDPS_Pressure_Sfc_RLatLon0.09_PT009H.grib2 2026-04-28 02:42 501K
20260428T00Z_MSC_RDPS_RadiativeTemp_Sfc_RLatLon0.09_PT009H.grib2 2026-04-28 02:42 305K
20260428T00Z_MSC_RDPS_Rain-Accum1h_Sfc_RLatLon0.09_PT009H.grib2 2026-04-28 02:42 612K
20260428T00Z_MSC_RDPS_Rain-Accum3h_Sfc_RLatLon0.09_PT009H.grib2 2026-04-28 02:42 678K
20260428T00Z_MSC_RDPS_Rain-Accum_Sfc_RLatLon0.09_PT009H.grib2 2026-04-28 02:42 1.1M
20260428T00Z_MSC_RDPS_RelativeHumidity_AGL-2m_RLatLon0.09_PT009H.grib2 2026-04-28 02:42 1.0M
20260428T00Z_MSC_RDPS_RelativeHumidity_IsbL-0010_RLatLon0.09_PT009H.grib2 2026-04-28 02:42 630K
20260428T00Z_MSC_RDPS_RelativeHumidity_IsbL-0020_RLatLon0.09_PT009H.grib2 2026-04-28 02:42 601K
20260428T00Z_MSC_RDPS_RelativeHumidity_IsbL-0030_RLatLon0.09_PT009H.grib2 2026-04-28 02:42 607K
20260428T00Z_MSC_RDPS_RelativeHumidity_IsbL-0050_RLatLon0.09_PT009H.grib2 2026-04-28 02:42 323K
20260428T00Z_MSC_RDPS_RelativeHumidity_IsbL-0100_RLatLon0.09_PT009H.grib2 2026-04-28 02:42 279K
20260428T00Z_MSC_RDPS_RelativeHumidity_IsbL-0150_RLatLon0.09_PT009H.grib2 2026-04-28 02:42 420K
20260428T00Z_MSC_RDPS_RelativeHumidity_IsbL-0175_RLatLon0.09_PT009H.grib2 2026-04-28 02:42 496K
20260428T00Z_MSC_RDPS_RelativeHumidity_IsbL-0200_RLatLon0.09_PT009H.grib2 2026-04-28 02:42 563K
20260428T00Z_MSC_RDPS_RelativeHumidity_IsbL-0225_RLatLon0.09_PT009H.grib2 2026-04-28 02:42 622K
20260428T00Z_MSC_RDPS_RelativeHumidity_IsbL-0250_RLatLon0.09_PT009H.grib2 2026-04-28 02:42 685K
20260428T00Z_MSC_RDPS_RelativeHumidity_IsbL-0275_RLatLon0.09_PT009H.grib2 2026-04-28 02:42 714K
20260428T00Z_MSC_RDPS_RelativeHumidity_IsbL-0300_RLatLon0.09_PT009H.grib2 2026-04-28 02:42 762K
20260428T00Z_MSC_RDPS_RelativeHumidity_IsbL-0350_RLatLon0.09_PT009H.grib2 2026-04-28 02:42 784K
20260428T00Z_MSC_RDPS_RelativeHumidity_IsbL-0400_RLatLon0.09_PT009H.grib2 2026-04-28 02:42 799K
20260428T00Z_MSC_RDPS_RelativeHumidity_IsbL-0450_RLatLon0.09_PT009H.grib2 2026-04-28 02:42 807K
20260428T00Z_MSC_RDPS_RelativeHumidity_IsbL-0500_RLatLon0.09_PT009H.grib2 2026-04-28 02:42 822K
20260428T00Z_MSC_RDPS_RelativeHumidity_IsbL-0550_RLatLon0.09_PT009H.grib2 2026-04-28 02:42 835K
20260428T00Z_MSC_RDPS_RelativeHumidity_IsbL-0600_RLatLon0.09_PT009H.grib2 2026-04-28 02:42 851K
20260428T00Z_MSC_RDPS_RelativeHumidity_IsbL-0650_RLatLon0.09_PT009H.grib2 2026-04-28 02:42 863K
20260428T00Z_MSC_RDPS_RelativeHumidity_IsbL-0700_RLatLon0.09_PT009H.grib2 2026-04-28 02:42 884K
20260428T00Z_MSC_RDPS_RelativeHumidity_IsbL-0750_RLatLon0.09_PT009H.grib2 2026-04-28 02:42 928K
20260428T00Z_MSC_RDPS_RelativeHumidity_IsbL-0800_RLatLon0.09_PT009H.grib2 2026-04-28 02:42 1.0M
20260428T00Z_MSC_RDPS_RelativeHumidity_IsbL-0850_RLatLon0.09_PT009H.grib2 2026-04-28 02:42 1.0M
20260428T00Z_MSC_RDPS_RelativeHumidity_IsbL-0875_RLatLon0.09_PT009H.grib2 2026-04-28 02:42 1.1M
20260428T00Z_MSC_RDPS_RelativeHumidity_IsbL-0900_RLatLon0.09_PT009H.grib2 2026-04-28 02:42 1.1M
20260428T00Z_MSC_RDPS_RelativeHumidity_IsbL-0925_RLatLon0.09_PT009H.grib2 2026-04-28 02:42 1.1M
20260428T00Z_MSC_RDPS_RelativeHumidity_IsbL-0950_RLatLon0.09_PT009H.grib2 2026-04-28 02:42 1.1M
20260428T00Z_MSC_RDPS_RelativeHumidity_IsbL-0970_RLatLon0.09_PT009H.grib2 2026-04-28 02:42 1.1M
20260428T00Z_MSC_RDPS_RelativeHumidity_IsbL-0985_RLatLon0.09_PT009H.grib2 2026-04-28 02:42 1.0M
20260428T00Z_MSC_RDPS_RelativeHumidity_IsbL-1000_RLatLon0.09_PT009H.grib2 2026-04-28 02:42 1.0M
20260428T00Z_MSC_RDPS_RelativeHumidity_IsbL-1015_RLatLon0.09_PT009H.grib2 2026-04-28 02:42 1.0M
20260428T00Z_MSC_RDPS_Runoff-Accum_Sfc_RLatLon0.09_PT009H.grib2 2026-04-28 02:42 52K
20260428T00Z_MSC_RDPS_SWEATIndex_Sfc_RLatLon0.09_PT009H.grib2 2026-04-28 02:42 2.4M
20260428T00Z_MSC_RDPS_SeeingIndex_EAtm_RLatLon0.09_PT009H.grib2 2026-04-28 02:42 1.0M
20260428T00Z_MSC_RDPS_SensibleHeatNetFlux_Sfc_RLatLon0.09_PT009H.grib2 2026-04-28 02:42 300K
20260428T00Z_MSC_RDPS_ShowalterIndex_IsbL-0500_RLatLon0.09_PT009H.grib2 2026-04-28 02:42 2.5M
20260428T00Z_MSC_RDPS_SkyTransparencyIndex_EAtm_RLatLon0.09_PT009H.grib2 2026-04-28 02:42 707K
20260428T00Z_MSC_RDPS_Snow-Accum1h_Sfc_RLatLon0.09_PT009H.grib2 2026-04-28 02:42 452K
20260428T00Z_MSC_RDPS_Snow-Accum3h_Sfc_RLatLon0.09_PT009H.grib2 2026-04-28 02:42 407K
20260428T00Z_MSC_RDPS_Snow-Accum_Sfc_RLatLon0.09_PT009H.grib2 2026-04-28 02:42 664K
20260428T00Z_MSC_RDPS_SnowDensity_Sfc_RLatLon0.09_PT009H.grib2 2026-04-28 02:42 178K
20260428T00Z_MSC_RDPS_SnowDepth_Sfc_RLatLon0.09_PT009H.grib2 2026-04-28 02:42 703K
20260428T00Z_MSC_RDPS_SoilTemp_DBS-0to10cm_RLatLon0.09_PT009H.grib2 2026-04-28 02:42 205K
20260428T00Z_MSC_RDPS_SoilTemp_Sfc_RLatLon0.09_PT009H.grib2 2026-04-28 02:42 269K
20260428T00Z_MSC_RDPS_SoilVolumetricIceContent_Sfc_RLatLon0.09_PT009H.grib2 2026-04-28 02:42 169K
20260428T00Z_MSC_RDPS_SoilVolumetricWaterContent_DBS-0to10cm_RLatLon0.09_PT009H.grib2 2026-04-28 02:42 261K
20260428T00Z_MSC_RDPS_SoilVolumetricWaterContent_DBS-0to1cm_RLatLon0.09_PT009H.grib2 2026-04-28 02:42 333K
20260428T00Z_MSC_RDPS_SpecificHumidity_AGL-120m_RLatLon0.09_PT009H.grib2 2026-04-28 02:42 482K
20260428T00Z_MSC_RDPS_SpecificHumidity_AGL-2m_RLatLon0.09_PT009H.grib2 2026-04-28 02:42 650K
20260428T00Z_MSC_RDPS_SpecificHumidity_AGL-40m_RLatLon0.09_PT009H.grib2 2026-04-28 02:42 487K
20260428T00Z_MSC_RDPS_SpecificHumidity_AGL-80m_RLatLon0.09_PT009H.grib2 2026-04-28 02:42 483K
20260428T00Z_MSC_RDPS_SpecificHumidity_IsbL-0001_RLatLon0.09_PT009H.grib2 2026-04-28 02:42 332K
20260428T00Z_MSC_RDPS_SpecificHumidity_IsbL-0005_RLatLon0.09_PT009H.grib2 2026-04-28 02:42 357K
20260428T00Z_MSC_RDPS_SpecificHumidity_IsbL-0010_RLatLon0.09_PT009H.grib2 2026-04-28 02:42 395K
20260428T00Z_MSC_RDPS_SpecificHumidity_IsbL-0020_RLatLon0.09_PT009H.grib2 2026-04-28 02:42 387K
20260428T00Z_MSC_RDPS_SpecificHumidity_IsbL-0030_RLatLon0.09_PT009H.grib2 2026-04-28 02:42 368K
20260428T00Z_MSC_RDPS_SpecificHumidity_IsbL-0050_RLatLon0.09_PT009H.grib2 2026-04-28 02:42 467K
20260428T00Z_MSC_RDPS_SpecificHumidity_IsbL-0100_RLatLon0.09_PT009H.grib2 2026-04-28 02:42 421K
20260428T00Z_MSC_RDPS_SpecificHumidity_IsbL-0150_RLatLon0.09_PT009H.grib2 2026-04-28 02:42 383K
20260428T00Z_MSC_RDPS_SpecificHumidity_IsbL-0175_RLatLon0.09_PT009H.grib2 2026-04-28 02:42 472K
20260428T00Z_MSC_RDPS_SpecificHumidity_IsbL-0200_RLatLon0.09_PT009H.grib2 2026-04-28 02:42 462K
20260428T00Z_MSC_RDPS_SpecificHumidity_IsbL-0225_RLatLon0.09_PT009H.grib2 2026-04-28 02:42 563K
20260428T00Z_MSC_RDPS_SpecificHumidity_IsbL-0250_RLatLon0.09_PT009H.grib2 2026-04-28 02:42 554K
20260428T00Z_MSC_RDPS_SpecificHumidity_IsbL-0275_RLatLon0.09_PT009H.grib2 2026-04-28 02:42 469K
20260428T00Z_MSC_RDPS_SpecificHumidity_IsbL-0300_RLatLon0.09_PT009H.grib2 2026-04-28 02:42 545K
20260428T00Z_MSC_RDPS_SpecificHumidity_IsbL-0350_RLatLon0.09_PT009H.grib2 2026-04-28 02:42 539K
20260428T00Z_MSC_RDPS_SpecificHumidity_IsbL-0400_RLatLon0.09_PT009H.grib2 2026-04-28 02:42 521K
20260428T00Z_MSC_RDPS_SpecificHumidity_IsbL-0450_RLatLon0.09_PT009H.grib2 2026-04-28 02:42 576K
20260428T00Z_MSC_RDPS_SpecificHumidity_IsbL-0500_RLatLon0.09_PT009H.grib2 2026-04-28 02:42 512K
20260428T00Z_MSC_RDPS_SpecificHumidity_IsbL-0550_RLatLon0.09_PT009H.grib2 2026-04-28 02:42 563K
20260428T00Z_MSC_RDPS_SpecificHumidity_IsbL-0600_RLatLon0.09_PT009H.grib2 2026-04-28 02:42 630K
20260428T00Z_MSC_RDPS_SpecificHumidity_IsbL-0650_RLatLon0.09_PT009H.grib2 2026-04-28 02:42 544K
20260428T00Z_MSC_RDPS_SpecificHumidity_IsbL-0700_RLatLon0.09_PT009H.grib2 2026-04-28 02:42 587K
20260428T00Z_MSC_RDPS_SpecificHumidity_IsbL-0750_RLatLon0.09_PT009H.grib2 2026-04-28 02:42 642K
20260428T00Z_MSC_RDPS_SpecificHumidity_IsbL-0800_RLatLon0.09_PT009H.grib2 2026-04-28 02:42 722K
20260428T00Z_MSC_RDPS_SpecificHumidity_IsbL-0850_RLatLon0.09_PT009H.grib2 2026-04-28 02:42 797K
20260428T00Z_MSC_RDPS_SpecificHumidity_IsbL-0875_RLatLon0.09_PT009H.grib2 2026-04-28 02:42 821K
20260428T00Z_MSC_RDPS_SpecificHumidity_IsbL-0900_RLatLon0.09_PT009H.grib2 2026-04-28 02:42 831K
20260428T00Z_MSC_RDPS_SpecificHumidity_IsbL-0925_RLatLon0.09_PT009H.grib2 2026-04-28 02:42 831K
20260428T00Z_MSC_RDPS_SpecificHumidity_IsbL-0950_RLatLon0.09_PT009H.grib2 2026-04-28 02:42 830K
20260428T00Z_MSC_RDPS_SpecificHumidity_IsbL-0970_RLatLon0.09_PT009H.grib2 2026-04-28 02:42 821K
20260428T00Z_MSC_RDPS_SpecificHumidity_IsbL-0985_RLatLon0.09_PT009H.grib2 2026-04-28 02:42 674K
20260428T00Z_MSC_RDPS_SpecificHumidity_IsbL-1000_RLatLon0.09_PT009H.grib2 2026-04-28 02:42 668K
20260428T00Z_MSC_RDPS_SpecificHumidity_IsbL-1015_RLatLon0.09_PT009H.grib2 2026-04-28 02:42 661K
20260428T00Z_MSC_RDPS_SpecificHumidity_Sfc_RLatLon0.09_PT009H.grib2 2026-04-28 02:42 288K
20260428T00Z_MSC_RDPS_StormRelativeHelicity_EtaL-10000_RLatLon0.09_PT009H.grib2 2026-04-28 02:42 1.1M
20260428T00Z_MSC_RDPS_StormSeverityIndex_EtaL-10000_RLatLon0.09_PT009H.grib2 2026-04-28 02:42 1.2M
20260428T00Z_MSC_RDPS_Thickness_IsbL-0850to0700_RLatLon0.09_PT009H.grib2 2026-04-28 02:42 176K
20260428T00Z_MSC_RDPS_Thickness_IsbL-1000to0500_RLatLon0.09_PT009H.grib2 2026-04-28 02:42 199K
20260428T00Z_MSC_RDPS_Thickness_IsbL-1000to0850_RLatLon0.09_PT009H.grib2 2026-04-28 02:42 184K
20260428T00Z_MSC_RDPS_TotalCloudCover_Sfc_RLatLon0.09_PT009H.grib2 2026-04-28 02:42 659K
20260428T00Z_MSC_RDPS_TotalTotalsIndex_Sfc_RLatLon0.09_PT009H.grib2 2026-04-28 02:42 2.4M
20260428T00Z_MSC_RDPS_UVIndex-ClearSky_Sfc_RLatLon0.09_PT009H.grib2 2026-04-28 02:42 107K
20260428T00Z_MSC_RDPS_UVIndex_Sfc_RLatLon0.09_PT009H.grib2 2026-04-28 02:42 192K
20260428T00Z_MSC_RDPS_UpwardLongwaveRadiationFlux_NTAtm_RLatLon0.09_PT009H.grib2 2026-04-28 02:42 489K
20260428T00Z_MSC_RDPS_UpwardShortwaveRadiationFlux_NTAtm_RLatLon0.09_PT009H.grib2 2026-04-28 02:42 156K
20260428T00Z_MSC_RDPS_VerticalVelocity_IsbL-0250_RLatLon0.09_PT009H.grib2 2026-04-28 02:42 561K
20260428T00Z_MSC_RDPS_VerticalVelocity_IsbL-0500_RLatLon0.09_PT009H.grib2 2026-04-28 02:42 548K
20260428T00Z_MSC_RDPS_VerticalVelocity_IsbL-0700_RLatLon0.09_PT009H.grib2 2026-04-28 02:42 595K
20260428T00Z_MSC_RDPS_VerticalVelocity_IsbL-0850_RLatLon0.09_PT009H.grib2 2026-04-28 02:42 695K
20260428T00Z_MSC_RDPS_VerticalWindShear_EtaL-6500_RLatLon0.09_PT009H.grib2 2026-04-28 02:42 1.2M
20260428T00Z_MSC_RDPS_WindChill_Sfc_RLatLon0.09_PT009H.grib2 2026-04-28 02:42 1.1M
20260428T00Z_MSC_RDPS_WindDir_AGL-10m_RLatLon0.09_PT009H.grib2 2026-04-28 02:42 1.0M
20260428T00Z_MSC_RDPS_WindDir_AGL-120m_RLatLon0.09_PT009H.grib2 2026-04-28 02:42 604K
20260428T00Z_MSC_RDPS_WindDir_AGL-40m_RLatLon0.09_PT009H.grib2 2026-04-28 02:42 641K
20260428T00Z_MSC_RDPS_WindDir_AGL-80m_RLatLon0.09_PT009H.grib2 2026-04-28 02:42 618K
20260428T00Z_MSC_RDPS_WindDir_IsbL-0001_RLatLon0.09_PT009H.grib2 2026-04-28 02:42 305K
20260428T00Z_MSC_RDPS_WindDir_IsbL-0005_RLatLon0.09_PT009H.grib2 2026-04-28 02:42 349K
20260428T00Z_MSC_RDPS_WindDir_IsbL-0010_RLatLon0.09_PT009H.grib2 2026-04-28 02:42 371K
20260428T00Z_MSC_RDPS_WindDir_IsbL-0020_RLatLon0.09_PT009H.grib2 2026-04-28 02:42 397K
20260428T00Z_MSC_RDPS_WindDir_IsbL-0030_RLatLon0.09_PT009H.grib2 2026-04-28 02:42 399K
20260428T00Z_MSC_RDPS_WindDir_IsbL-0050_RLatLon0.09_PT009H.grib2 2026-04-28 02:42 415K
20260428T00Z_MSC_RDPS_WindDir_IsbL-0100_RLatLon0.09_PT009H.grib2 2026-04-28 02:42 419K
20260428T00Z_MSC_RDPS_WindDir_IsbL-0150_RLatLon0.09_PT009H.grib2 2026-04-28 02:42 419K
20260428T00Z_MSC_RDPS_WindDir_IsbL-0175_RLatLon0.09_PT009H.grib2 2026-04-28 02:42 436K
20260428T00Z_MSC_RDPS_WindDir_IsbL-0200_RLatLon0.09_PT009H.grib2 2026-04-28 02:42 437K
20260428T00Z_MSC_RDPS_WindDir_IsbL-0225_RLatLon0.09_PT009H.grib2 2026-04-28 02:42 440K
20260428T00Z_MSC_RDPS_WindDir_IsbL-0250_RLatLon0.09_PT009H.grib2 2026-04-28 02:42 444K
20260428T00Z_MSC_RDPS_WindDir_IsbL-0275_RLatLon0.09_PT009H.grib2 2026-04-28 02:42 468K
20260428T00Z_MSC_RDPS_WindDir_IsbL-0300_RLatLon0.09_PT009H.grib2 2026-04-28 02:42 467K
20260428T00Z_MSC_RDPS_WindDir_IsbL-0350_RLatLon0.09_PT009H.grib2 2026-04-28 02:42 489K
20260428T00Z_MSC_RDPS_WindDir_IsbL-0400_RLatLon0.09_PT009H.grib2 2026-04-28 02:42 517K
20260428T00Z_MSC_RDPS_WindDir_IsbL-0450_RLatLon0.09_PT009H.grib2 2026-04-28 02:42 532K
20260428T00Z_MSC_RDPS_WindDir_IsbL-0500_RLatLon0.09_PT009H.grib2 2026-04-28 02:42 547K
20260428T00Z_MSC_RDPS_WindDir_IsbL-0550_RLatLon0.09_PT009H.grib2 2026-04-28 02:42 556K
20260428T00Z_MSC_RDPS_WindDir_IsbL-0600_RLatLon0.09_PT009H.grib2 2026-04-28 02:42 588K
20260428T00Z_MSC_RDPS_WindDir_IsbL-0650_RLatLon0.09_PT009H.grib2 2026-04-28 02:42 627K
20260428T00Z_MSC_RDPS_WindDir_IsbL-0700_RLatLon0.09_PT009H.grib2 2026-04-28 02:42 665K
20260428T00Z_MSC_RDPS_WindDir_IsbL-0750_RLatLon0.09_PT009H.grib2 2026-04-28 02:42 706K
20260428T00Z_MSC_RDPS_WindDir_IsbL-0800_RLatLon0.09_PT009H.grib2 2026-04-28 02:42 774K
20260428T00Z_MSC_RDPS_WindDir_IsbL-0850_RLatLon0.09_PT009H.grib2 2026-04-28 02:42 854K
20260428T00Z_MSC_RDPS_WindDir_IsbL-0875_RLatLon0.09_PT009H.grib2 2026-04-28 02:42 877K
20260428T00Z_MSC_RDPS_WindDir_IsbL-0900_RLatLon0.09_PT009H.grib2 2026-04-28 02:42 895K
20260428T00Z_MSC_RDPS_WindDir_IsbL-0925_RLatLon0.09_PT009H.grib2 2026-04-28 02:42 908K
20260428T00Z_MSC_RDPS_WindDir_IsbL-0950_RLatLon0.09_PT009H.grib2 2026-04-28 02:42 910K
20260428T00Z_MSC_RDPS_WindDir_IsbL-0970_RLatLon0.09_PT009H.grib2 2026-04-28 02:42 920K
20260428T00Z_MSC_RDPS_WindDir_IsbL-0985_RLatLon0.09_PT009H.grib2 2026-04-28 02:42 932K
20260428T00Z_MSC_RDPS_WindDir_IsbL-1000_RLatLon0.09_PT009H.grib2 2026-04-28 02:42 947K
20260428T00Z_MSC_RDPS_WindDir_IsbL-1015_RLatLon0.09_PT009H.grib2 2026-04-28 02:42 967K
20260428T00Z_MSC_RDPS_WindGust-Max_AGL-10m_RLatLon0.09_PT009H.grib2 2026-04-28 02:42 1.0M
20260428T00Z_MSC_RDPS_WindGust-Min_AGL-10m_RLatLon0.09_PT009H.grib2 2026-04-28 02:42 1.0M
20260428T00Z_MSC_RDPS_WindGust_AGL-10m_RLatLon0.09_PT009H.grib2 2026-04-28 02:42 1.0M
20260428T00Z_MSC_RDPS_WindSpeed_AGL-10m_RLatLon0.09_PT009H.grib2 2026-04-28 02:42 849K
20260428T00Z_MSC_RDPS_WindSpeed_AGL-120m_RLatLon0.09_PT009H.grib2 2026-04-28 02:42 555K
20260428T00Z_MSC_RDPS_WindSpeed_AGL-40m_RLatLon0.09_PT009H.grib2 2026-04-28 02:42 550K
20260428T00Z_MSC_RDPS_WindSpeed_AGL-80m_RLatLon0.09_PT009H.grib2 2026-04-28 02:42 557K
20260428T00Z_MSC_RDPS_WindSpeed_IsbL-0001_RLatLon0.09_PT009H.grib2 2026-04-28 02:42 251K
20260428T00Z_MSC_RDPS_WindSpeed_IsbL-0005_RLatLon0.09_PT009H.grib2 2026-04-28 02:42 295K
20260428T00Z_MSC_RDPS_WindSpeed_IsbL-0010_RLatLon0.09_PT009H.grib2 2026-04-28 02:42 304K
20260428T00Z_MSC_RDPS_WindSpeed_IsbL-0020_RLatLon0.09_PT009H.grib2 2026-04-28 02:42 321K
20260428T00Z_MSC_RDPS_WindSpeed_IsbL-0030_RLatLon0.09_PT009H.grib2 2026-04-28 02:42 316K
20260428T00Z_MSC_RDPS_WindSpeed_IsbL-0050_RLatLon0.09_PT009H.grib2 2026-04-28 02:42 350K
20260428T00Z_MSC_RDPS_WindSpeed_IsbL-0100_RLatLon0.09_PT009H.grib2 2026-04-28 02:42 444K
20260428T00Z_MSC_RDPS_WindSpeed_IsbL-0150_RLatLon0.09_PT009H.grib2 2026-04-28 02:42 390K
20260428T00Z_MSC_RDPS_WindSpeed_IsbL-0175_RLatLon0.09_PT009H.grib2 2026-04-28 02:42 439K
20260428T00Z_MSC_RDPS_WindSpeed_IsbL-0200_RLatLon0.09_PT009H.grib2 2026-04-28 02:42 451K
20260428T00Z_MSC_RDPS_WindSpeed_IsbL-0225_RLatLon0.09_PT009H.grib2 2026-04-28 02:42 457K
20260428T00Z_MSC_RDPS_WindSpeed_IsbL-0250_RLatLon0.09_PT009H.grib2 2026-04-28 02:42 462K
20260428T00Z_MSC_RDPS_WindSpeed_IsbL-0275_RLatLon0.09_PT009H.grib2 2026-04-28 02:42 478K
20260428T00Z_MSC_RDPS_WindSpeed_IsbL-0300_RLatLon0.09_PT009H.grib2 2026-04-28 02:42 474K
20260428T00Z_MSC_RDPS_WindSpeed_IsbL-0350_RLatLon0.09_PT009H.grib2 2026-04-28 02:42 465K
20260428T00Z_MSC_RDPS_WindSpeed_IsbL-0400_RLatLon0.09_PT009H.grib2 2026-04-28 02:42 470K
20260428T00Z_MSC_RDPS_WindSpeed_IsbL-0450_RLatLon0.09_PT009H.grib2 2026-04-28 02:42 468K
20260428T00Z_MSC_RDPS_WindSpeed_IsbL-0500_RLatLon0.09_PT009H.grib2 2026-04-28 02:42 583K
20260428T00Z_MSC_RDPS_WindSpeed_IsbL-0550_RLatLon0.09_PT009H.grib2 2026-04-28 02:42 581K
20260428T00Z_MSC_RDPS_WindSpeed_IsbL-0600_RLatLon0.09_PT009H.grib2 2026-04-28 02:42 592K
20260428T00Z_MSC_RDPS_WindSpeed_IsbL-0650_RLatLon0.09_PT009H.grib2 2026-04-28 02:42 653K
20260428T00Z_MSC_RDPS_WindSpeed_IsbL-0700_RLatLon0.09_PT009H.grib2 2026-04-28 02:42 676K
20260428T00Z_MSC_RDPS_WindSpeed_IsbL-0750_RLatLon0.09_PT009H.grib2 2026-04-28 02:42 704K
20260428T00Z_MSC_RDPS_WindSpeed_IsbL-0800_RLatLon0.09_PT009H.grib2 2026-04-28 02:42 754K
20260428T00Z_MSC_RDPS_WindSpeed_IsbL-0850_RLatLon0.09_PT009H.grib2 2026-04-28 02:42 813K
20260428T00Z_MSC_RDPS_WindSpeed_IsbL-0875_RLatLon0.09_PT009H.grib2 2026-04-28 02:42 835K
20260428T00Z_MSC_RDPS_WindSpeed_IsbL-0900_RLatLon0.09_PT009H.grib2 2026-04-28 02:42 850K
20260428T00Z_MSC_RDPS_WindSpeed_IsbL-0925_RLatLon0.09_PT009H.grib2 2026-04-28 02:42 862K
20260428T00Z_MSC_RDPS_WindSpeed_IsbL-0950_RLatLon0.09_PT009H.grib2 2026-04-28 02:42 864K
20260428T00Z_MSC_RDPS_WindSpeed_IsbL-0970_RLatLon0.09_PT009H.grib2 2026-04-28 02:42 866K
20260428T00Z_MSC_RDPS_WindSpeed_IsbL-0985_RLatLon0.09_PT009H.grib2 2026-04-28 02:42 863K
20260428T00Z_MSC_RDPS_WindSpeed_IsbL-1000_RLatLon0.09_PT009H.grib2 2026-04-28 02:42 855K
20260428T00Z_MSC_RDPS_WindSpeed_IsbL-1015_RLatLon0.09_PT009H.grib2 2026-04-28 02:42 848K
20260428T00Z_MSC_RDPS_WindU_AGL-10m_RLatLon0.09_PT009H.grib2 2026-04-28 02:42 436K
20260428T00Z_MSC_RDPS_WindU_AGL-120m_RLatLon0.09_PT009H.grib2 2026-04-28 02:42 422K
20260428T00Z_MSC_RDPS_WindU_AGL-40m_RLatLon0.09_PT009H.grib2 2026-04-28 02:42 545K
20260428T00Z_MSC_RDPS_WindU_AGL-80m_RLatLon0.09_PT009H.grib2 2026-04-28 02:42 424K
20260428T00Z_MSC_RDPS_WindU_IsbL-0001_RLatLon0.09_PT009H.grib2 2026-04-28 02:42 292K
20260428T00Z_MSC_RDPS_WindU_IsbL-0005_RLatLon0.09_PT009H.grib2 2026-04-28 02:42 288K
20260428T00Z_MSC_RDPS_WindU_IsbL-0010_RLatLon0.09_PT009H.grib2 2026-04-28 02:42 337K
20260428T00Z_MSC_RDPS_WindU_IsbL-0020_RLatLon0.09_PT009H.grib2 2026-04-28 02:42 350K
20260428T00Z_MSC_RDPS_WindU_IsbL-0030_RLatLon0.09_PT009H.grib2 2026-04-28 02:42 349K
20260428T00Z_MSC_RDPS_WindU_IsbL-0050_RLatLon0.09_PT009H.grib2 2026-04-28 02:42 377K
20260428T00Z_MSC_RDPS_WindU_IsbL-0100_RLatLon0.09_PT009H.grib2 2026-04-28 02:42 340K
20260428T00Z_MSC_RDPS_WindU_IsbL-0150_RLatLon0.09_PT009H.grib2 2026-04-28 02:42 407K
20260428T00Z_MSC_RDPS_WindU_IsbL-0175_RLatLon0.09_PT009H.grib2 2026-04-28 02:42 335K
20260428T00Z_MSC_RDPS_WindU_IsbL-0200_RLatLon0.09_PT009H.grib2 2026-04-28 02:42 344K
20260428T00Z_MSC_RDPS_WindU_IsbL-0225_RLatLon0.09_PT009H.grib2 2026-04-28 02:42 349K
20260428T00Z_MSC_RDPS_WindU_IsbL-0250_RLatLon0.09_PT009H.grib2 2026-04-28 02:42 351K
20260428T00Z_MSC_RDPS_WindU_IsbL-0275_RLatLon0.09_PT009H.grib2 2026-04-28 02:42 467K
20260428T00Z_MSC_RDPS_WindU_IsbL-0300_RLatLon0.09_PT009H.grib2 2026-04-28 02:42 461K
20260428T00Z_MSC_RDPS_WindU_IsbL-0350_RLatLon0.09_PT009H.grib2 2026-04-28 02:42 469K
20260428T00Z_MSC_RDPS_WindU_IsbL-0400_RLatLon0.09_PT009H.grib2 2026-04-28 02:42 474K
20260428T00Z_MSC_RDPS_WindU_IsbL-0450_RLatLon0.09_PT009H.grib2 2026-04-28 02:42 472K
20260428T00Z_MSC_RDPS_WindU_IsbL-0500_RLatLon0.09_PT009H.grib2 2026-04-28 02:42 471K
20260428T00Z_MSC_RDPS_WindU_IsbL-0550_RLatLon0.09_PT009H.grib2 2026-04-28 02:42 471K
20260428T00Z_MSC_RDPS_WindU_IsbL-0600_RLatLon0.09_PT009H.grib2 2026-04-28 02:42 464K
20260428T00Z_MSC_RDPS_WindU_IsbL-0650_RLatLon0.09_PT009H.grib2 2026-04-28 02:42 480K
20260428T00Z_MSC_RDPS_WindU_IsbL-0700_RLatLon0.09_PT009H.grib2 2026-04-28 02:42 500K
20260428T00Z_MSC_RDPS_WindU_IsbL-0750_RLatLon0.09_PT009H.grib2 2026-04-28 02:42 526K
20260428T00Z_MSC_RDPS_WindU_IsbL-0800_RLatLon0.09_PT009H.grib2 2026-04-28 02:42 570K
20260428T00Z_MSC_RDPS_WindU_IsbL-0850_RLatLon0.09_PT009H.grib2 2026-04-28 02:42 623K
20260428T00Z_MSC_RDPS_WindU_IsbL-0875_RLatLon0.09_PT009H.grib2 2026-04-28 02:42 642K
20260428T00Z_MSC_RDPS_WindU_IsbL-0900_RLatLon0.09_PT009H.grib2 2026-04-28 02:42 652K
20260428T00Z_MSC_RDPS_WindU_IsbL-0925_RLatLon0.09_PT009H.grib2 2026-04-28 02:42 659K
20260428T00Z_MSC_RDPS_WindU_IsbL-0950_RLatLon0.09_PT009H.grib2 2026-04-28 02:42 657K
20260428T00Z_MSC_RDPS_WindU_IsbL-0970_RLatLon0.09_PT009H.grib2 2026-04-28 02:42 657K
20260428T00Z_MSC_RDPS_WindU_IsbL-0985_RLatLon0.09_PT009H.grib2 2026-04-28 02:42 655K
20260428T00Z_MSC_RDPS_WindU_IsbL-1000_RLatLon0.09_PT009H.grib2 2026-04-28 02:42 791K
20260428T00Z_MSC_RDPS_WindU_IsbL-1015_RLatLon0.09_PT009H.grib2 2026-04-28 02:42 786K
20260428T00Z_MSC_RDPS_WindV_AGL-10m_RLatLon0.09_PT009H.grib2 2026-04-28 02:42 435K
20260428T00Z_MSC_RDPS_WindV_AGL-120m_RLatLon0.09_PT009H.grib2 2026-04-28 02:42 538K
20260428T00Z_MSC_RDPS_WindV_AGL-40m_RLatLon0.09_PT009H.grib2 2026-04-28 02:42 543K
20260428T00Z_MSC_RDPS_WindV_AGL-80m_RLatLon0.09_PT009H.grib2 2026-04-28 02:42 540K
20260428T00Z_MSC_RDPS_WindV_IsbL-0001_RLatLon0.09_PT009H.grib2 2026-04-28 02:42 292K
20260428T00Z_MSC_RDPS_WindV_IsbL-0005_RLatLon0.09_PT009H.grib2 2026-04-28 02:42 329K
20260428T00Z_MSC_RDPS_WindV_IsbL-0010_RLatLon0.09_PT009H.grib2 2026-04-28 02:42 295K
20260428T00Z_MSC_RDPS_WindV_IsbL-0020_RLatLon0.09_PT009H.grib2 2026-04-28 02:42 313K
20260428T00Z_MSC_RDPS_WindV_IsbL-0030_RLatLon0.09_PT009H.grib2 2026-04-28 02:42 311K
20260428T00Z_MSC_RDPS_WindV_IsbL-0050_RLatLon0.09_PT009H.grib2 2026-04-28 02:42 342K
20260428T00Z_MSC_RDPS_WindV_IsbL-0100_RLatLon0.09_PT009H.grib2 2026-04-28 02:42 337K
20260428T00Z_MSC_RDPS_WindV_IsbL-0150_RLatLon0.09_PT009H.grib2 2026-04-28 02:42 404K
20260428T00Z_MSC_RDPS_WindV_IsbL-0175_RLatLon0.09_PT009H.grib2 2026-04-28 02:42 431K
20260428T00Z_MSC_RDPS_WindV_IsbL-0200_RLatLon0.09_PT009H.grib2 2026-04-28 02:42 345K
20260428T00Z_MSC_RDPS_WindV_IsbL-0225_RLatLon0.09_PT009H.grib2 2026-04-28 02:42 346K
20260428T00Z_MSC_RDPS_WindV_IsbL-0250_RLatLon0.09_PT009H.grib2 2026-04-28 02:42 349K
20260428T00Z_MSC_RDPS_WindV_IsbL-0275_RLatLon0.09_PT009H.grib2 2026-04-28 02:42 363K
20260428T00Z_MSC_RDPS_WindV_IsbL-0300_RLatLon0.09_PT009H.grib2 2026-04-28 02:42 359K
20260428T00Z_MSC_RDPS_WindV_IsbL-0350_RLatLon0.09_PT009H.grib2 2026-04-28 02:42 364K
20260428T00Z_MSC_RDPS_WindV_IsbL-0400_RLatLon0.09_PT009H.grib2 2026-04-28 02:42 367K
20260428T00Z_MSC_RDPS_WindV_IsbL-0450_RLatLon0.09_PT009H.grib2 2026-04-28 02:42 470K
20260428T00Z_MSC_RDPS_WindV_IsbL-0500_RLatLon0.09_PT009H.grib2 2026-04-28 02:42 468K
20260428T00Z_MSC_RDPS_WindV_IsbL-0550_RLatLon0.09_PT009H.grib2 2026-04-28 02:42 467K
20260428T00Z_MSC_RDPS_WindV_IsbL-0600_RLatLon0.09_PT009H.grib2 2026-04-28 02:42 477K
20260428T00Z_MSC_RDPS_WindV_IsbL-0650_RLatLon0.09_PT009H.grib2 2026-04-28 02:42 493K
20260428T00Z_MSC_RDPS_WindV_IsbL-0700_RLatLon0.09_PT009H.grib2 2026-04-28 02:42 496K
20260428T00Z_MSC_RDPS_WindV_IsbL-0750_RLatLon0.09_PT009H.grib2 2026-04-28 02:42 522K
20260428T00Z_MSC_RDPS_WindV_IsbL-0800_RLatLon0.09_PT009H.grib2 2026-04-28 02:42 565K
20260428T00Z_MSC_RDPS_WindV_IsbL-0850_RLatLon0.09_PT009H.grib2 2026-04-28 02:42 617K
20260428T00Z_MSC_RDPS_WindV_IsbL-0875_RLatLon0.09_PT009H.grib2 2026-04-28 02:42 637K
20260428T00Z_MSC_RDPS_WindV_IsbL-0900_RLatLon0.09_PT009H.grib2 2026-04-28 02:42 649K
20260428T00Z_MSC_RDPS_WindV_IsbL-0925_RLatLon0.09_PT009H.grib2 2026-04-28 02:42 657K
20260428T00Z_MSC_RDPS_WindV_IsbL-0950_RLatLon0.09_PT009H.grib2 2026-04-28 02:42 799K
20260428T00Z_MSC_RDPS_WindV_IsbL-0970_RLatLon0.09_PT009H.grib2 2026-04-28 02:42 798K
20260428T00Z_MSC_RDPS_WindV_IsbL-0985_RLatLon0.09_PT009H.grib2 2026-04-28 02:42 794K
20260428T00Z_MSC_RDPS_WindV_IsbL-1000_RLatLon0.09_PT009H.grib2 2026-04-28 02:42 790K
20260428T00Z_MSC_RDPS_WindV_IsbL-1015_RLatLon0.09_PT009H.grib2 2026-04-28 02:42 831K